Time;durP1;ratioP1;P1;durP2;ratioP2;P2;SDS_P1;SDS_P2;PMS_P1;PMS_P2;Temp;Humidity;BMP_temperature;BMP_pressure;BME280_temperature;BME280_humidity;BME280_pressure;Samples;Min_cycle;Max_cycle;Signal;HPM_P1;HPM_P2
2021/07/12 00:00:34;;;;;;;8.90;7.47;;;;;;;23.61;61.71;101258.31;6157650;23;20408;-80
2021/07/12 00:03:00;;;;;;;10.88;6.72;;;;;;;23.61;61.57;101253.66;6184190;23;20005;-81
2021/07/12 00:05:26;;;;;;;8.10;7.18;;;;;;;23.54;62.34;101251.94;6184911;23;20004;-80
2021/07/12 00:07:52;;;;;;;8.35;7.30;;;;;;;23.46;62.68;101253.00;6157804;23;20008;-80
2021/07/12 00:10:20;;;;;;;8.77;7.70;;;;;;;23.49;62.62;101249.84;6184623;23;20434;-81
2021/07/12 00:12:46;;;;;;;9.52;8.52;;;;;;;23.54;62.40;101255.56;6157579;23;20005;-84
2021/07/12 00:15:13;;;;;;;8.65;7.32;;;;;;;23.47;62.98;101257.41;6184654;23;20011;-80
2021/07/12 00:17:39;;;;;;;11.38;7.70;;;;;;;23.49;62.76;101259.97;6184543;23;20020;-81
2021/07/12 00:20:07;;;;;;;14.55;8.38;;;;;;;23.46;62.83;101254.91;6183968;23;20478;-81
2021/07/12 00:22:33;;;;;;;10.75;8.02;;;;;;;23.44;62.92;101257.00;6184137;23;20009;-81
2021/07/12 00:24:58;;;;;;;10.75;8.13;;;;;;;23.43;63.19;101263.56;6184707;23;20311;-81
2021/07/12 00:27:24;;;;;;;10.25;9.10;;;;;;;23.42;63.21;101250.84;6184282;23;20020;-81
2021/07/12 00:29:50;;;;;;;8.93;8.10;;;;;;;23.40;63.40;101248.34;6184765;23;20009;-80
2021/07/12 00:32:15;;;;;;;9.35;8.45;;;;;;;23.43;63.16;101250.66;6184874;23;20009;-80
2021/07/12 00:34:40;;;;;;;10.40;8.50;;;;;;;23.39;62.96;101246.66;6184801;23;20441;-81
2021/07/12 00:37:06;;;;;;;11.80;8.18;;;;;;;23.36;62.93;101250.66;6157075;23;20012;-79
2021/07/12 00:39:31;;;;;;;13.13;9.70;;;;;;;23.43;62.49;101252.56;6184134;23;20021;-81
2021/07/12 00:41:57;;;;;;;12.90;9.52;;;;;;;23.35;62.55;101248.94;6183584;23;20011;-80
2021/07/12 00:44:22;;;;;;;9.82;8.88;;;;;;;23.33;62.35;101245.59;6183893;23;20020;-81
2021/07/12 00:46:48;;;;;;;10.68;8.82;;;;;;;23.45;61.78;101242.22;6157652;23;20009;-80
2021/07/12 00:49:13;;;;;;;11.48;9.13;;;;;;;23.35;62.41;101240.72;6156829;23;20009;-80
2021/07/12 00:51:39;;;;;;;9.55;8.57;;;;;;;23.44;62.00;101243.28;6184227;23;20409;-80
2021/07/12 00:54:05;;;;;;;10.95;9.00;;;;;;;23.35;62.32;101243.44;6184264;23;20791;-81
2021/07/12 00:56:30;;;;;;;10.30;9.10;;;;;;;23.45;62.09;101239.47;6183663;23;20333;-80
2021/07/12 00:58:56;;;;;;;11.32;8.85;;;;;;;23.38;62.18;101243.03;6184482;23;20437;-81
2021/07/12 01:01:21;;;;;;;11.05;9.75;;;;;;;23.42;62.12;101245.38;6183623;23;20080;-80
2021/07/12 01:03:47;;;;;;;10.15;9.13;;;;;;;23.35;62.17;101235.22;6183897;23;20016;-81
2021/07/12 01:06:13;;;;;;;12.43;9.93;;;;;;;23.30;62.37;101239.66;6183967;23;20005;-81
2021/07/12 01:08:38;;;;;;;17.02;9.77;;;;;;;23.33;62.11;101242.84;6183660;23;20015;-80
2021/07/12 01:11:38;;;;;;;15.70;11.38;;;;;;;23.27;62.49;101237.34;6157292;23;20001;-81
2021/07/12 01:14:24;;;;;;;16.35;10.45;;;;;;;23.31;62.38;101239.44;6183765;23;20414;-80
2021/07/12 01:17:02;;;;;;;11.98;10.73;;;;;;;23.20;63.01;101233.72;6184064;23;20043;-80
2021/07/12 01:19:53;;;;;;;12.68;10.10;;;;;;;23.21;62.80;101233.53;6183854;23;20035;-80
2021/07/12 01:22:21;;;;;;;;;;;;;;;23.18;63.13;101231.19;6184174;23;20009;-80
2021/07/12 01:25:24;;;;;;;14.95;10.43;;;;;;;23.25;62.80;101243.03;6157137;23;19908;-80
2021/07/12 01:28:07;;;;;;;12.85;11.05;;;;;;;23.14;63.15;101240.88;6184308;23;20037;-81
2021/07/12 01:30:56;;;;;;;12.18;10.38;;;;;;;23.14;63.27;101230.75;6157293;23;20015;-81
2021/07/12 01:33:41;;;;;;;13.73;10.65;;;;;;;23.16;63.16;101230.53;6187126;23;20063;-81
2021/07/12 01:36:25;;;;;;;13.02;11.70;;;;;;;23.19;62.98;101230.13;6185269;23;20087;-81
2021/07/12 01:39:15;;;;;;;12.15;10.88;;;;;;;23.09;63.64;101226.94;6184172;23;20063;-80
2021/07/12 01:42:00;;;;;;;12.73;10.88;;;;;;;23.13;63.27;101228.22;6183624;23;20017;-80
2021/07/12 01:44:39;;;;;;;12.75;11.50;;;;;;;23.15;63.42;101226.13;6184245;23;20076;-80
2021/07/12 01:47:12;;;;;;;13.70;11.13;;;;;;;23.10;63.66;101223.97;6184230;23;20021;-80
2021/07/12 01:50:00;;;;;;;17.70;12.32;;;;;;;23.08;63.99;101217.88;6183768;23;20005;-80
2021/07/12 01:52:37;;;;;;;12.85;10.50;;;;;;;23.09;63.75;101218.72;6183514;23;20012;-80
2021/07/12 01:55:08;;;;;;;15.68;11.27;;;;;;;23.06;63.96;101217.22;6183700;23;20043;-80
2021/07/12 01:57:42;;;;;;;12.10;10.88;;;;;;;23.07;63.67;101209.84;6183880;23;20340;-80
2021/07/12 02:00:13;;;;;;;14.60;11.07;;;;;;;23.03;63.86;101209.41;6183409;23;20016;-80
2021/07/12 02:02:42;;;;;;;11.85;10.30;;;;;;;22.97;64.37;101198.41;6184878;23;20005;-81
2021/07/12 02:05:11;;;;;;;14.93;12.18;;;;;;;22.94;64.58;101206.00;6158110;23;20121;-80
2021/07/12 02:07:37;;;;;;;13.13;11.70;;;;;;;22.93;64.58;101197.97;6157079;23;20449;-80
2021/07/12 02:10:06;;;;;;;11.73;10.63;;;;;;;22.93;64.41;101206.19;6184084;23;20005;-80
2021/07/12 02:12:33;;;;;;;14.02;11.95;;;;;;;22.87;64.72;101199.63;6157355;23;20020;-81
2021/07/12 02:15:01;;;;;;;14.18;10.60;;;;;;;22.85;64.90;101201.72;6184515;23;20386;-81
2021/07/12 02:17:28;;;;;;;14.43;11.68;;;;;;;22.87;64.91;101202.38;6183304;23;20008;-80
2021/07/12 02:19:55;;;;;;;12.25;11.05;;;;;;;22.87;64.91;101207.84;6184139;23;20001;-81
2021/07/12 02:22:21;;;;;;;14.70;13.27;;;;;;;22.75;65.88;101200.44;6183567;23;20063;-81
2021/07/12 02:24:48;;;;;;;15.70;13.15;;;;;;;22.76;65.64;101200.19;6183627;23;20005;-80
2021/07/12 02:27:16;;;;;;;14.57;12.68;;;;;;;22.74;65.80;101194.06;6182953;23;20005;-80
2021/07/12 02:29:42;;;;;;;18.55;12.80;;;;;;;22.74;66.11;101191.31;6183379;23;20005;-81
2021/07/12 02:32:09;;;;;;;13.55;11.60;;;;;;;22.75;66.06;101189.47;6156289;23;20047;-80
2021/07/12 02:34:35;;;;;;;13.40;12.00;;;;;;;22.71;66.07;101189.00;6184483;23;20064;-80
2021/07/12 02:37:02;;;;;;;14.10;12.60;;;;;;;22.64;66.65;101191.72;6183930;23;20604;-80
2021/07/12 02:39:30;;;;;;;14.20;11.82;;;;;;;22.67;66.78;101194.03;6184369;23;20008;-80
2021/07/12 02:41:56;;;;;;;17.45;12.40;;;;;;;22.62;67.16;101182.00;6157199;23;20460;-80
2021/07/12 02:44:22;;;;;;;12.35;11.05;;;;;;;22.63;66.87;101178.22;6183656;23;20016;-81
2021/07/12 02:46:48;;;;;;;13.52;12.10;;;;;;;22.59;67.45;101185.16;6183555;23;20334;-80
2021/07/12 02:49:13;;;;;;;17.88;13.32;;;;;;;22.62;67.29;101187.47;6183396;23;20012;-80
2021/07/12 02:51:45;;;;;;;15.05;13.10;;;;;;;22.54;67.80;101188.50;6183321;23;20067;-80
2021/07/12 02:54:13;;;;;;;16.30;12.73;;;;;;;22.61;67.53;101183.06;6156497;23;20040;-80
2021/07/12 02:56:38;;;;;;;15.60;12.65;;;;;;;22.58;67.94;101172.50;6156617;23;20112;-80
2021/07/12 02:59:04;;;;;;;15.48;13.35;;;;;;;22.59;67.60;101177.78;6156117;23;20045;-81
2021/07/12 03:01:30;;;;;;;18.63;13.40;;;;;;;22.62;67.63;101171.03;6182679;23;20052;-80
2021/07/12 03:03:55;;;;;;;17.83;14.30;;;;;;;22.57;67.95;101179.88;6156978;23;20005;-80
2021/07/12 03:06:27;;;;;;;19.65;13.70;;;;;;;22.55;68.34;101183.88;6184017;23;20019;-80
2021/07/12 03:09:02;;;;;;;19.45;14.38;;;;;;;22.53;68.42;101180.47;6183473;23;20008;-80
2021/07/12 03:11:54;;;;;;;16.27;13.80;;;;;;;22.55;68.24;101181.13;6183670;23;20004;-81
2021/07/12 03:14:32;;;;;;;18.92;15.10;;;;;;;22.49;68.46;101175.41;6183723;23;20016;-81
2021/07/12 03:16:58;;;;;;;18.17;13.82;;;;;;;22.46;68.66;101177.72;6183224;23;20005;-81
2021/07/12 03:19:32;;;;;;;15.18;13.23;;;;;;;22.43;69.23;101161.69;6182832;23;20005;-81
2021/07/12 03:21:59;;;;;;;15.18;12.80;;;;;;;22.35;69.89;101164.59;6182764;23;20345;-81
2021/07/12 03:24:28;;;;;;;17.10;13.18;;;;;;;22.35;69.48;101167.34;6155965;23;20004;-80
2021/07/12 03:26:55;;;;;;;13.32;11.98;;;;;;;22.39;69.05;101160.41;6182337;23;20091;-80
2021/07/12 03:29:22;;;;;;;15.32;13.82;;;;;;;22.39;69.36;101157.66;6182195;23;20012;-80
2021/07/12 03:31:49;;;;;;;17.00;13.43;;;;;;;22.29;70.18;101160.78;6183116;23;20009;-81
2021/07/12 03:34:16;;;;;;;15.73;12.88;;;;;;;22.25;70.67;101160.34;6182504;23;20430;-81
2021/07/12 03:36:44;;;;;;;15.32;12.57;;;;;;;22.32;70.14;101157.63;6182877;23;20020;-81
2021/07/12 03:39:10;;;;;;;15.63;14.00;;;;;;;22.25;70.89;101157.59;6182918;23;20445;-80
2021/07/12 03:41:37;;;;;;;18.05;13.73;;;;;;;22.28;70.82;101152.75;6156514;23;20009;-80
2021/07/12 03:44:05;;;;;;;16.85;12.63;;;;;;;22.34;70.07;101150.03;6182712;23;20338;-80
2021/07/12 03:46:30;;;;;;;14.18;12.60;;;;;;;22.37;70.31;101149.63;6182597;23;20013;-80
2021/07/12 03:48:56;;;;;;;16.85;14.90;;;;;;;22.36;70.25;101149.84;6182627;23;20034;-80
2021/07/12 03:51:23;;;;;;;16.08;13.48;;;;;;;22.36;70.31;101144.38;6183018;23;20096;-80
2021/07/12 03:53:49;;;;;;;16.05;12.85;;;;;;;22.30;70.77;101146.03;6182414;23;20374;-80
2021/07/12 03:56:15;;;;;;;18.40;14.05;;;;;;;22.23;71.21;101146.00;6182577;23;20044;-80
2021/07/12 03:58:40;;;;;;;17.65;13.45;;;;;;;22.31;70.92;101142.22;6181426;23;20009;-82
2021/07/12 04:01:06;;;;;;;17.80;13.20;;;;;;;22.30;71.06;101148.75;6174923;23;20029;-81
2021/07/12 04:03:32;;;;;;;17.80;12.57;;;;;;;22.38;70.65;101140.38;6172459;23;20067;-82
2021/07/12 04:05:58;;;;;;;16.67;12.93;;;;;;;22.33;71.05;101145.63;6172104;23;20673;-81
2021/07/12 04:26:23;;;;;;;15.48;12.45;;;;;;;22.30;71.98;101126.84;6138679;23;20025;-82
2021/07/12 04:28:51;;;;;;;13.60;12.20;;;;;;;22.34;71.87;101130.84;6153314;23;20012;-82
2021/07/12 04:31:17;;;;;;;17.38;12.10;;;;;;;22.35;71.75;101132.56;6155236;23;20081;-83
2021/07/12 04:33:42;;;;;;;14.07;11.80;;;;;;;22.39;71.68;101136.56;6126682;23;20044;-83
2021/07/12 04:36:08;;;;;;;13.82;11.52;;;;;;;22.41;71.60;101137.22;6152636;23;20009;-82
2021/07/12 04:38:33;;;;;;;13.57;11.02;;;;;;;22.45;71.53;101140.41;6152949;23;20507;-82
2021/07/12 04:40:58;;;;;;;17.35;12.32;;;;;;;22.48;71.44;101135.34;6126421;23;20064;-82
2021/07/12 04:48:34;;;;;;;14.30;10.90;;;;;;;22.49;71.68;101142.50;6104956;23;20036;-83
2021/07/12 04:50:59;;;;;;;12.23;9.70;;;;;;;22.49;71.62;101134.28;6136569;23;20092;-85
2021/07/12 04:58:41;;;;;;;15.13;10.73;;;;;;;22.81;69.99;101123.66;6117355;23;20359;-83
2021/07/12 05:01:07;;;;;;;13.15;10.82;;;;;;;22.75;70.05;101121.75;6093847;23;20006;-83
2021/07/12 05:34:34;;;;;;;10.27;8.48;;;;;;;23.11;68.80;101104.97;6101354;23;20014;-78
2021/07/12 05:39:25;;;;;;;10.40;8.05;;;;;;;23.15;68.31;101110.88;6128671;23;20026;-78
2021/07/12 05:41:50;;;;;;;17.25;7.85;;;;;;;23.16;68.35;101105.16;6169469;23;20016;-79
2021/07/12 05:44:16;;;;;;;10.05;8.82;;;;;;;23.13;68.23;101091.03;6162108;23;20338;-79
2021/07/12 05:46:41;;;;;;;8.63;7.75;;;;;;;23.15;68.14;101106.22;6121965;23;20048;-78
2021/07/12 05:49:07;;;;;;;22.88;8.13;;;;;;;23.16;68.31;101098.84;6148484;23;20005;-78
2021/07/12 05:51:32;;;;;;;8.63;7.70;;;;;;;22.97;68.91;101096.94;6148285;23;20039;-78
2021/07/12 05:53:57;;;;;;;10.48;7.63;;;;;;;22.85;69.27;101097.50;6121488;23;20005;-81
2021/07/12 05:56:22;;;;;;;12.23;8.05;;;;;;;22.86;69.55;101101.91;6147465;23;20009;-81
2021/07/12 06:35:00;;;;;;;23.45;7.22;;;;;;;23.46;67.47;101103.91;6167653;23;20569;-81
2021/07/12 06:37:26;;;;;;;8.93;7.68;;;;;;;23.45;67.37;101104.94;6177138;23;20010;-81
2021/07/12 06:39:51;;;;;;;11.02;7.22;;;;;;;23.42;67.38;101114.47;6125695;23;20056;-80
2021/07/12 06:42:16;;;;;;;14.85;6.78;;;;;;;23.46;66.89;101110.25;6121580;23;20005;-81
2021/07/12 06:44:41;;;;;;;10.50;6.55;;;;;;;23.63;66.74;101114.25;6147450;23;20777;-80
2021/07/12 06:47:07;;;;;;;9.30;6.25;;;;;;;23.72;65.89;101100.31;6147745;23;20012;-81
2021/07/12 06:49:32;;;;;;;10.57;6.43;;;;;;;23.72;66.28;101111.31;6121695;23;20006;-81
2021/07/12 06:51:58;;;;;;;8.35;6.50;;;;;;;23.89;65.99;101114.44;6147784;23;20508;-81
2021/07/12 06:54:23;;;;;;;9.65;6.57;;;;;;;23.88;65.68;101112.78;6120440;23;20009;-81
2021/07/12 06:56:49;;;;;;;9.13;6.90;;;;;;;23.96;65.46;101112.53;6147158;23;20012;-81
2021/07/12 06:59:14;;;;;;;8.18;6.28;;;;;;;23.96;65.12;101107.03;6147168;23;20005;-81
2021/07/12 07:01:40;;;;;;;12.90;6.80;;;;;;;23.98;65.28;101105.75;6147734;23;20060;-81
2021/07/12 07:04:05;;;;;;;7.60;6.55;;;;;;;23.93;64.52;101104.72;6148305;23;20009;-81
2021/07/12 07:06:30;;;;;;;7.20;6.10;;;;;;;24.02;64.21;101106.16;6147566;23;20041;-81
2021/07/12 07:08:56;;;;;;;9.65;6.30;;;;;;;24.05;63.76;101100.25;6147226;23;20009;-81
2021/07/12 07:11:21;;;;;;;9.18;7.93;;;;;;;24.02;64.10;101111.66;6147266;23;20009;-81
2021/07/12 07:13:46;;;;;;;9.25;6.50;;;;;;;23.98;64.34;101097.53;6147229;23;20084;-81
2021/07/12 07:16:12;;;;;;;6.78;5.88;;;;;;;23.75;65.75;101099.88;6147181;23;20453;-81
2021/07/12 07:18:37;;;;;;;6.82;5.85;;;;;;;23.68;65.30;101088.03;6121710;23;20005;-81
2021/07/12 07:21:03;;;;;;;7.93;5.72;;;;;;;23.66;65.72;101095.66;6147922;23;20009;-81
2021/07/12 07:23:28;;;;;;;6.47;5.53;;;;;;;23.74;65.23;101087.22;6121013;23;20802;-80
2021/07/12 07:25:53;;;;;;;10.50;7.07;;;;;;;23.82;65.74;101082.34;6120544;23;20346;-81
2021/07/12 07:28:19;;;;;;;8.00;5.95;;;;;;;23.80;65.83;101078.97;6147118;23;20016;-81
2021/07/12 07:30:45;;;;;;;7.95;5.93;;;;;;;23.87;65.75;101073.44;6146942;23;20021;-81
2021/07/12 07:33:11;;;;;;;17.70;7.38;;;;;;;23.80;65.74;101080.88;6146982;23;20005;-81
2021/07/12 07:35:36;;;;;;;9.82;5.60;;;;;;;23.84;65.43;101083.00;6121985;23;20011;-81
2021/07/12 07:38:03;;;;;;;11.85;5.95;;;;;;;23.87;64.93;101072.59;6147803;23;20024;-81
2021/07/12 07:40:28;;;;;;;7.45;5.50;;;;;;;23.86;64.87;101069.03;6120461;23;20454;-81
2021/07/12 07:42:53;;;;;;;12.27;5.93;;;;;;;23.94;64.19;101070.72;6120182;23;20010;-80
2021/07/12 07:45:18;;;;;;;26.77;7.97;;;;;;;23.97;64.40;101071.13;6147751;23;20005;-81
2021/07/12 07:47:45;;;;;;;11.43;5.68;;;;;;;23.98;65.07;101063.72;6149183;23;20338;-81
2021/07/12 07:50:12;;;;;;;14.75;6.85;;;;;;;24.29;63.45;101069.28;6123013;23;20013;-81
2021/07/12 07:52:37;;;;;;;11.43;5.78;;;;;;;24.39;62.89;101062.47;6123729;23;20114;-81
2021/07/12 07:55:08;;;;;;;11.80;6.10;;;;;;;24.43;63.48;101063.78;6148630;23;20021;-81
2021/07/12 07:57:34;;;;;;;;;;;;;;;24.34;64.13;101063.16;6149612;23;20013;-81
2021/07/12 07:59:59;;;;;;;24.42;7.85;;;;;;;24.27;64.33;101059.56;6147063;23;19956;-81
2021/07/12 08:02:25;;;;;;;6.78;6.13;;;;;;;24.32;64.83;101062.50;6148927;23;20052;-81
2021/07/12 08:04:50;;;;;;;10.18;5.78;;;;;;;24.35;64.29;101063.97;6149031;23;20037;-81
2021/07/12 08:07:15;;;;;;;7.53;5.82;;;;;;;24.39;64.24;101063.31;6148409;23;20346;-81
2021/07/12 08:09:41;;;;;;;13.10;6.03;;;;;;;24.34;65.12;101062.31;6149145;23;20005;-81
2021/07/12 08:12:06;;;;;;;9.90;5.70;;;;;;;24.38;65.07;101060.78;6146744;23;20013;-81
2021/07/12 08:14:32;;;;;;;11.95;5.90;;;;;;;24.45;64.80;101058.88;6148468;23;20013;-81
2021/07/12 08:16:57;;;;;;;11.63;6.40;;;;;;;24.43;63.80;101056.38;6148791;23;20083;-81
2021/07/12 08:19:23;;;;;;;14.88;5.97;;;;;;;24.46;63.52;101052.34;6148782;23;20005;-81
2021/07/12 08:21:48;;;;;;;6.50;5.50;;;;;;;24.55;63.45;101067.53;6149775;23;20020;-81
2021/07/12 08:24:13;;;;;;;11.77;5.80;;;;;;;24.63;63.43;101053.47;6148855;23;20323;-81
2021/07/12 08:26:40;;;;;;;12.30;5.50;;;;;;;24.72;63.75;101054.06;6147006;23;20032;-81
2021/07/12 08:29:06;;;;;;;8.07;5.40;;;;;;;24.81;63.50;101060.16;6148289;23;20013;-81
2021/07/12 08:31:31;;;;;;;12.80;6.00;;;;;;;24.91;63.05;101052.25;6148547;23;20068;-81
2021/07/12 08:33:56;;;;;;;10.38;5.32;;;;;;;24.97;63.63;101057.69;6148535;23;20020;-81
2021/07/12 08:36:23;;;;;;;6.50;4.78;;;;;;;25.37;61.17;101060.13;6148574;23;20009;-81
2021/07/12 08:38:49;;;;;;;10.40;5.53;;;;;;;25.50;61.10;101055.56;6149741;23;20010;-81
2021/07/12 08:41:14;;;;;;;10.52;5.40;;;;;;;25.65;60.41;101056.91;6149807;23;20887;-81
2021/07/12 08:43:40;;;;;;;10.25;5.55;;;;;;;25.66;59.35;101060.50;6149222;23;20009;-81
2021/07/12 08:46:06;;;;;;;8.40;5.88;;;;;;;25.80;60.05;101059.28;6149552;23;20381;-81
2021/07/12 08:48:31;;;;;;;9.82;5.32;;;;;;;25.91;59.75;101046.69;6149865;23;20009;-81
2021/07/12 08:50:57;;;;;;;13.98;5.70;;;;;;;25.90;60.09;101064.31;6148525;23;20005;-81
2021/07/12 08:53:22;;;;;;;10.13;5.68;;;;;;;25.91;59.23;101054.97;6148387;23;20108;-81
2021/07/12 08:55:47;;;;;;;8.45;5.13;;;;;;;26.10;58.86;101053.88;6149633;23;20006;-81
2021/07/12 08:58:23;;;;;;;5.70;5.10;;;;;;;26.19;57.46;101053.56;6148787;23;20008;-81
2021/07/12 09:01:00;;;;;;;9.98;4.93;;;;;;;26.26;57.13;101044.16;6146607;23;20029;-81
2021/07/12 09:03:36;;;;;;;8.90;5.72;;;;;;;26.34;57.08;101048.50;6148522;23;20112;-80
2021/07/12 09:06:04;;;;;;;8.07;4.72;;;;;;;26.16;58.04;101052.13;6146621;23;20020;-81
2021/07/12 09:08:56;;;;;;;8.68;4.90;;;;;;;26.15;57.21;101046.84;6148121;23;20044;-81
2021/07/12 09:11:27;;;;;;;6.65;5.45;;;;;;;26.21;57.54;101043.16;6149435;23;20017;-81
2021/07/12 09:13:57;;;;;;;;;;;;;;;26.21;56.64;101052.28;6149184;23;20009;-81
2021/07/12 09:16:54;;;;;;;13.73;5.38;;;;;;;26.28;56.44;101053.00;6148035;23;20013;-81
2021/07/12 09:19:35;;;;;;;7.05;5.10;;;;;;;26.28;56.93;101060.44;6161049;23;20033;-80
2021/07/12 09:22:03;;;;;;;;;;;;;;;26.33;56.94;101053.16;6178642;23;20052;-81
2021/07/12 09:24:45;;;;;;;8.70;4.95;;;;;;;26.44;58.37;101051.53;6130632;23;19908;-81
2021/07/12 09:27:12;;;;;;;6.68;4.88;;;;;;;26.54;56.10;101054.63;6136782;23;20019;-81
2021/07/12 09:29:43;;;;;;;6.10;5.28;;;;;;;26.64;55.82;101051.28;6148664;23;20311;-81
2021/07/12 09:32:21;;;;;;;10.05;4.60;;;;;;;26.73;55.56;101057.31;6121611;23;20105;-81
2021/07/12 09:34:48;;;;;;;10.32;4.95;;;;;;;26.80;55.88;101044.25;6148261;23;20010;-81
2021/07/12 09:37:17;;;;;;;8.23;4.93;;;;;;;26.86;55.79;101054.34;6147958;23;20478;-81
2021/07/12 09:39:46;;;;;;;5.63;4.57;;;;;;;26.90;55.97;101046.44;6148199;23;20008;-81
2021/07/12 09:42:20;;;;;;;8.77;4.75;;;;;;;26.95;56.06;101044.66;6148214;23;20080;-81
2021/07/12 09:44:51;;;;;;;7.20;4.80;;;;;;;26.90;55.81;101036.22;6122426;23;20009;-81
2021/07/12 09:47:19;;;;;;;;;;;;;;;26.95;56.09;101039.13;6148264;23;20032;-81
2021/07/12 09:49:45;;;;;;;7.45;5.10;;;;;;;26.89;54.81;101040.06;6147648;23;19927;-81
2021/07/12 09:52:15;;;;;;;7.80;5.07;;;;;;;26.78;56.57;101038.13;6147910;23;20009;-81
2021/07/12 09:54:43;;;;;;;9.93;5.00;;;;;;;26.83;55.39;101041.03;6147580;23;20093;-81
2021/07/12 09:57:12;;;;;;;7.20;4.90;;;;;;;26.76;55.70;101032.84;6147910;23;20009;-81
2021/07/12 10:00:03;;;;;;;6.28;4.50;;;;;;;26.59;54.81;101035.44;6148631;23;20018;-81
2021/07/12 10:02:31;;;;;;;8.00;4.90;;;;;;;26.64;54.53;101031.13;6147867;23;20506;-81
2021/07/12 10:05:00;;;;;;;9.80;4.60;;;;;;;26.48;54.71;101033.47;6147631;23;20013;-82
2021/07/12 10:07:26;;;;;;;8.60;4.65;;;;;;;26.45;55.15;101035.84;6121293;23;20615;-81
2021/07/12 10:09:52;;;;;;;9.93;4.72;;;;;;;26.56;56.04;101030.38;6147133;23;20021;-81
2021/07/12 10:12:17;;;;;;;7.38;4.13;;;;;;;26.66;56.29;101023.44;6147966;23;20005;-81
2021/07/12 10:14:42;;;;;;;6.95;4.20;;;;;;;26.69;55.30;101028.50;6148469;23;20076;-81
2021/07/12 10:17:09;;;;;;;6.88;4.82;;;;;;;26.76;55.19;101030.09;6148550;23;20032;-81
2021/07/12 10:19:38;;;;;;;10.23;4.78;;;;;;;26.70;55.53;101020.00;6147058;23;20017;-81
2021/07/12 10:22:05;;;;;;;4.93;4.43;;;;;;;26.74;56.06;101020.38;6147319;23;20012;-81
2021/07/12 10:24:37;;;;;;;5.53;4.45;;;;;;;26.80;55.02;101027.69;6120985;23;20346;-81
2021/07/12 10:27:03;;;;;;;7.10;4.85;;;;;;;26.63;54.41;101027.53;6121092;23;20064;-81
2021/07/12 10:29:36;;;;;;;7.60;4.35;;;;;;;26.68;55.34;101024.06;6149527;23;20009;-81
2021/07/12 10:32:15;;;;;;;7.40;4.20;;;;;;;26.72;54.84;101014.22;6122956;23;20013;-81
2021/07/12 10:34:44;;;;;;;8.20;4.45;;;;;;;26.74;54.05;101026.72;6147760;23;20013;-81
2021/07/12 10:37:25;;;;;;;7.53;5.18;;;;;;;26.61;52.80;101026.09;6120851;23;20112;-81
2021/07/12 10:39:57;;;;;;;5.25;4.47;;;;;;;26.69;52.96;101022.97;6147222;23;20557;-81
2021/07/12 10:42:41;;;;;;;6.93;4.70;;;;;;;26.70;52.78;101020.00;6147570;23;20033;-81
2021/07/12 10:45:26;;;;;;;7.30;4.72;;;;;;;26.72;53.31;101017.84;6120956;23;20017;-81
2021/07/12 10:48:01;;;;;;;5.40;4.90;;;;;;;26.73;53.53;101018.69;6148910;23;20442;-81
2021/07/12 10:50:38;;;;;;;6.80;4.60;;;;;;;26.83;52.84;101013.44;6116945;23;20097;-79
2021/07/12 10:55:40;;;;;;;10.93;5.05;;;;;;;26.94;52.44;101017.31;6121927;23;1079005;-78
2021/07/12 15:00:52;;;;;;;4.20;2.05;;;;;;;34.35;34.53;100901.19;6142363;23;20804;-82
2021/07/12 15:26:27;;;;;;;6.15;2.08;;;;;;;33.83;34.74;100879.16;6124312;23;20089;-81
2021/07/12 15:33:59;;;;;;;3.63;1.95;;;;;;;32.60;37.24;100872.25;6108037;23;20077;-81
2021/07/12 15:36:25;;;;;;;2.78;1.83;;;;;;;32.48;37.95;100867.00;6149368;23;20013;-81
2021/07/12 15:38:50;;;;;;;6.38;1.88;;;;;;;32.45;37.58;100859.22;6150434;23;20109;-81
2021/07/12 15:41:15;;;;;;;3.22;2.08;;;;;;;32.34;37.91;100863.91;6149119;23;20009;-81
2021/07/12 15:43:41;;;;;;;4.82;2.08;;;;;;;32.36;38.79;100860.84;6147384;23;20342;-81
2021/07/12 15:46:06;;;;;;;4.20;2.28;;;;;;;32.09;38.37;100853.59;6146239;23;20136;-81
2021/07/12 15:48:35;;;;;;;5.82;1.83;;;;;;;32.28;37.87;100859.44;6147815;23;20775;-81
2021/07/12 15:51:00;;;;;;;5.88;2.00;;;;;;;32.09;37.63;100861.94;6148266;23;20491;-81
2021/07/12 16:42:25;;;;;;;6.13;1.95;;;;;;;31.71;35.42;100840.97;6103601;23;20717;-81
2021/07/12 17:00:21;;;;;;;2.92;1.50;;;;;;;30.58;36.01;100842.31;6145009;23;20470;-81
2021/07/12 17:02:47;;;;;;;3.88;1.90;;;;;;;30.57;36.27;100846.19;6180074;23;20027;-81
2021/07/12 17:05:13;;;;;;;2.85;1.63;;;;;;;30.50;37.09;100856.72;6180951;23;20009;-81
2021/07/12 17:07:38;;;;;;;3.00;2.00;;;;;;;30.29;37.58;100858.47;6180566;23;20127;-81
2021/07/12 17:10:05;;;;;;;3.97;1.80;;;;;;;30.22;38.38;100855.91;6153153;23;20123;-81
2021/07/12 17:12:30;;;;;;;3.65;1.80;;;;;;;30.19;38.72;100861.97;6181971;23;20381;-81
2021/07/12 17:14:55;;;;;;;4.22;2.03;;;;;;;30.10;39.48;100858.84;6180080;23;20332;-81
2021/07/12 17:17:23;;;;;;;2.58;1.58;;;;;;;30.18;39.70;100858.38;6180263;23;20009;-81
2021/07/12 17:19:49;;;;;;;5.82;2.38;;;;;;;30.17;39.98;100855.84;6179988;23;20016;-81
2021/07/12 17:22:14;;;;;;;6.50;1.92;;;;;;;30.12;40.43;100861.31;6153423;23;20495;-81
2021/07/12 17:24:39;;;;;;;2.65;1.80;;;;;;;29.90;40.71;100858.63;6180108;23;20028;-81
2021/07/12 17:27:05;;;;;;;4.93;2.10;;;;;;;29.81;40.99;100851.88;6181651;23;20060;-81
2021/07/12 17:29:31;;;;;;;13.85;2.40;;;;;;;29.73;41.21;100850.41;6181316;23;20005;-81
2021/07/12 17:31:56;;;;;;;2.08;1.75;;;;;;;29.65;41.68;100857.25;6179805;23;20438;-81
2021/07/12 17:34:22;;;;;;;15.80;6.15;;;;;;;29.52;42.06;100858.47;6180558;23;20009;-81
2021/07/12 17:36:47;;;;;;;5.35;2.15;;;;;;;29.57;42.14;100859.59;6179983;23;20449;-81
2021/07/12 17:39:14;;;;;;;33.65;12.70;;;;;;;29.18;43.07;100862.47;6179468;23;20104;-81
2021/07/12 17:41:40;;;;;;;3.95;2.40;;;;;;;29.29;42.52;100872.56;6179571;23;20013;-81
2021/07/12 17:44:05;;;;;;;26.08;8.35;;;;;;;29.00;43.20;100864.41;6183005;23;20043;-81
2021/07/12 17:46:31;;;;;;;17.35;6.68;;;;;;;28.96;43.09;100860.47;6179961;23;20013;-81
2021/07/12 17:48:56;;;;;;;4.93;2.08;;;;;;;28.84;42.93;100866.13;6155029;23;20009;-81
2021/07/12 17:51:22;;;;;;;8.18;2.42;;;;;;;28.70;42.85;100858.41;6179832;23;20008;-81
2021/07/12 17:53:47;;;;;;;2.42;1.75;;;;;;;28.77;42.27;100867.38;6152471;23;20037;-81
2021/07/12 17:56:13;;;;;;;3.15;1.92;;;;;;;28.73;42.34;100867.03;6178535;23;20009;-81
2021/07/12 17:58:39;;;;;;;7.28;2.20;;;;;;;28.48;42.38;100861.94;6147287;23;20017;-81
2021/07/12 18:01:05;;;;;;;7.35;1.92;;;;;;;28.39;42.31;100866.19;6179000;23;20018;-81
2021/07/12 18:03:32;;;;;;;5.55;2.10;;;;;;;28.15;42.24;100860.81;6152488;23;20430;-81
2021/07/12 18:05:58;;;;;;;2.25;1.65;;;;;;;28.19;41.88;100861.13;6152005;23;20035;-81
2021/07/12 18:08:23;;;;;;;5.57;1.83;;;;;;;28.11;42.35;100861.56;6178419;23;20579;-81
2021/07/12 18:10:49;;;;;;;7.32;1.90;;;;;;;28.10;42.51;100862.63;6179826;23;20051;-81
2021/07/12 18:13:14;;;;;;;6.40;2.28;;;;;;;27.84;43.19;100858.56;6178594;23;20036;-81
2021/07/12 18:15:39;;;;;;;2.25;2.00;;;;;;;27.81;43.27;100865.44;6153448;23;20448;-80
2021/07/12 18:18:06;;;;;;;5.63;2.58;;;;;;;27.69;43.88;100856.31;6179908;23;20393;-81
2021/07/12 18:20:31;;;;;;;4.32;2.38;;;;;;;27.66;43.88;100859.56;6178710;23;20087;-81
2021/07/12 18:22:56;;;;;;;3.28;2.08;;;;;;;27.56;44.07;100859.38;6178831;23;20047;-81
2021/07/12 18:25:22;;;;;;;5.80;1.90;;;;;;;27.25;44.12;100853.22;6178730;23;20005;-81
2021/07/12 18:27:47;;;;;;;8.57;2.45;;;;;;;27.30;44.21;100861.59;6179743;23;20005;-81
2021/07/12 18:30:13;;;;;;;4.97;2.22;;;;;;;27.24;44.70;100865.34;6178025;23;20064;-81
2021/07/12 18:32:38;;;;;;;3.08;1.92;;;;;;;27.12;44.14;100865.34;6180200;23;20333;-80
2021/07/12 18:35:07;;;;;;;2.85;2.13;;;;;;;27.09;44.70;100868.59;6180812;23;20012;-81
2021/07/12 18:37:34;;;;;;;4.20;2.70;;;;;;;26.96;44.87;100869.66;6178672;23;20338;-81
2021/07/12 18:40:04;;;;;;;7.55;3.30;;;;;;;26.93;45.35;100867.38;6151795;23;20380;-81